Derlis Romero

Recruteur en chef - River Plate
24 Juil 2027
Samedi
Processus

Personnalité

Adaptabilité (2) Ambition (15) Controverse (1) Loyauté (10) Pression (5) Professionnalisme (16) Sportivité (1) Tempérament (14)

Profil

Style d'entraînement Démocratique
Diplôme Continental A
Détermination 11
Gestion des joueurs 5
Motivation 10
Discipline 3
Satisfaction professionnelle
35%
Fatigue
0%
Rôle Recruteur en chef
Salaire 12.7K p/s
Contrat 14.03.2030

Performance

Comportement Bon
Efficacité de l'entraînement
12%
Développement des joueurs
30%
Prévention des blessures
25%
Mise en place tactique
40%

Événements récents

A participé à une réunion de recrutement maintenant
A participé à une réunion de recrutement 7j
A recommandé une cible de transfert 7j
A recommandé une cible de transfert 7j
A participé à une réunion de recrutement 14j
A recommandé une cible de transfert 14j
A recommandé une cible de transfert 21j
A observé un match 21j

Suivi en cours

209
Joueur Club Statut Capacité Confiance Observé Dernière observation Dernier vote
Thiago Fernández Libertad Actif 94 / 97 58% 1 12.07.2027 Approuver
Justin Devenny Stoke City Actif 126 / 111 40% 3 07.06.2027 -
Danilo Veiga Lecce Actif 135 / 132 40% 6 07.06.2027 -
Estifen Díaz Libertad Actif 101 / 99 58% 1 01.06.2027 Approuver
Sam Greenwood Bristol City Actif 124 / 123 40% 1 31.05.2027 -
Tyreece Campbell Charlton Athletic Actif 107 / 134 40% 1 31.05.2027 -
Víctor Guzmán Sporting CP Actif 101 / 105 40% 3 30.05.2027 -
Dilan Godoy Vélez Actif 111 / 128 40% 1 30.05.2027 -
Adulai Embaló Virtus Entella Actif 90 / 109 40% 1 29.05.2027 -
Oliver Arblaster Sheffield United Actif 131 / 124 40% 1 28.05.2027 -
Mateo Mendoza Godoy Cruz Actif 131 / 120 40% 1 28.05.2027 -
Lewis Bate Stockport County Actif 126 / 130 40% 4 26.05.2027 -
Habib Diarra Sunderland Actif 130 / 125 40% 2 25.05.2027 -
Junior Tchamadeu Stoke City Actif 140 / 111 40% 2 25.05.2027 -
Brooke Norton-Cuffy Hull City Actif 148 / 123 40% 1 24.05.2027 -
Brodie Spencer Oxford United Actif 117 / 109 40% 7 23.05.2027 -
Jacques Ekomié Wrexham Actif 119 / 139 40% 5 23.05.2027 -
Máximo Núñez Los Andes Actif 89 / 104 40% 3 23.05.2027 -
Tommaso Orsini Sambenedettese Actif 105 / 122 40% 1 23.05.2027 -
Johnly Yfeko Exeter City Actif 104 / 96 40% 3 21.05.2027 -
Bosun Lawal Stoke City Actif 117 / 142 40% 4 20.05.2027 -
Jay McGrath Doncaster Rovers Actif 114 / 124 40% 1 20.05.2027 -
Álex Valle Como Actif 124 / 156 40% 2 19.05.2027 -
Enzo Cardozo Virtus Entella Actif 113 / 111 40% 1 19.05.2027 -
Terry Devlin Portsmouth Actif 127 / 115 40% 6 18.05.2027 -
Eli King Gillingham Actif 99 / 122 40% 2 18.05.2027 -
Oumar Camara Vitoria Guimaraes Actif 130 / 115 40% 2 17.05.2027 -
Michael Craig Leyton Orient Actif 102 / 113 40% 1 17.05.2027 -
Facundo Rodríguez Talleres Actif 79 / 105 40% 1 17.05.2027 -
Lorenzo De Leo Renate Actif 99 / 105 40% 2 16.05.2027 -
Edison Gruezo Guadalajara Actif 96 / 108 40% 1 16.05.2027 -
Max Conway Bolton Wanderers Actif 118 / 134 40% 6 14.05.2027 -
Shaqueel van Persie Feyenoord Actif 106 / 112 40% 2 14.05.2027 -
Samuele Angori Pisa Actif 125 / 145 40% 1 12.05.2027 -
Jenson Metcalfe Bradford City Actif 101 / 119 40% 1 12.05.2027 -
Tommaso Barbieri Cremonese Actif 126 / 134 40% 4 11.05.2027 -
Callum Doyle Wrexham Actif 127 / 142 40% 6 11.05.2027 -
Nicolò Radaelli Mantova Actif 105 / 114 40% 3 09.05.2027 -
Tim Iroegbunam Hull City Actif 135 / 142 40% 3 08.05.2027 -
Álex Lebarbier Real Sociedad Actif 93 / 103 40% 4 08.05.2027 -
Emiliano Cantero Defensa y Justicia Actif 91 / 99 40% 2 07.05.2027 -
Darlvin Yeboah Bechem United Actif 77 / 81 40% 3 07.05.2027 -
Charlie Webster Burton Albion Actif 113 / 101 40% 5 06.05.2027 -
Ben Nelson Leicester City Actif 124 / 151 40% 5 03.05.2027 -
Edoardo Bove Watford Actif 146 / 122 40% 3 01.05.2027 -
Isaac Ogundere AFC Wimbledon Actif 112 / 90 40% 4 01.05.2027 -
Andrei Coubiş Lincoln City Actif 127 / 116 40% 3 30.04.2027 -
Babis Kostoulas Aston Villa Actif 121 / 138 40% 1 30.04.2027 -
Juan Larios Piast Actif 108 / 112 40% 3 27.04.2027 -
Reuell Walters Luton Town Actif 108 / 121 40% 2 26.04.2027 -
Jonás Luna Wanderers Actif 127 / 118 40% 1 26.04.2027 -
Owen Lunt Crewe Alexandra Actif 90 / 104 40% 2 22.04.2027 -
Bjorn Meijer Sampdoria Actif 127 / 111 40% 1 22.04.2027 -
Ethan Pye Stockport County Actif 105 / 127 40% 2 21.04.2027 -
Dramane Kamagaté USM Alger Actif 113 / 95 40% 2 21.04.2027 -
Joel Orlando Real Sociedad Actif 127 / 120 40% 2 21.04.2027 -
Ben Chrisene Sheffield Wednesday Actif 133 / 124 40% 2 19.04.2027 -
Georgie Gent Barnsley Actif 118 / 112 40% 3 15.04.2027 -
Franco Yennerich Talleres Actif 83 / 103 40% 1 15.04.2027 -
Teden Mengi Luton Town Actif 122 / 126 40% 5 13.04.2027 -
Brad Hills Stockport County Actif 104 / 122 40% 3 10.04.2027 -
Nobel Mendy Hull City Actif 119 / 122 40% 2 09.04.2027 -
Borna Knezović Casarano Actif 109 / 103 40% 1 08.04.2027 -
Volodymyr Mulyk Kryvbas Actif 84 / 74 40% 1 08.04.2027 -
Thomas Atiemo Wa All Stars Actif 72 / 88 40% 2 05.04.2027 -
Marvin Kaleta Rotherham United Actif 90 / 100 40% 3 02.04.2027 -
Sunusi Audu New Edubiase United Actif 101 / 102 40% 1 02.04.2027 -
Diego Bolaños Argentinos Juniors Actif 90 / 88 40% 1 02.04.2027 -
Tomás Bais Lanús Actif 92 / 82 40% 1 01.04.2027 -
Ignacio Abarza Huracán Actif 80 / 96 40% 1 24.03.2027 -
Alfonso Álvarez Ferro Carril Oeste Actif 81 / 94 40% 1 24.03.2027 -
David Fernández O'Higgins Actif 107 / 121 40% 2 21.03.2027 -
Christos Mouzakitis Hull City Actif 130 / 146 40% 1 21.03.2027 -
Agustín Guerrero Huracán Actif 80 / 92 40% 1 21.03.2027 -
George Brown Sheffield Wednesday Actif 118 / 94 40% 1 18.03.2027 -
Dimitris Rallis Wisla Krakow Actif 101 / 93 40% 1 18.03.2027 -
James Furlong Walsall Actif 99 / 117 40% 2 17.03.2027 -
Jonathan De Irastorza Levante Actif 119 / 112 40% 1 16.03.2027 -
Lautaro Gutiérrez Girona Actif 99 / 107 40% 1 15.03.2027 -
Kirill Cheburakov Rostov Actif 88 / 91 40% 1 15.03.2027 -
Ignacio Cardozo Vélez Actif 87 / 97 40% 1 14.03.2027 -
Nathan Moriah-Welsh Mansfield Town Actif 124 / 117 40% 2 09.03.2027 -
Sam Curtis Swindon Town Actif 89 / 116 40% 1 08.03.2027 -
Liam Thompson Mansfield Town Actif 119 / 100 40% 1 07.03.2027 -
Lindon Emërllahu Polissia Actif 126 / 140 40% 1 01.03.2027 -
Deniz Ertaş Konyaspor Actif 137 / 107 40% 2 28.02.2027 -
Riquelme Thompson-Jones Shrewsbury Town Actif 94 / 94 40% 1 24.02.2027 -
Jeffrey Adjei Wa All Stars Actif 80 / 104 40% 1 24.02.2027 -
Sindre Walle Egeli Nottingham Forest Actif 141 / 120 40% 1 23.02.2027 -
Leonel Flores Boca Juniors Actif 92 / 103 40% 1 23.02.2027 -
Valentín Perroud Boca Juniors Actif 86 / 98 40% 1 20.02.2027 -
Roberto Iliev Slavia Sofia Actif 101 / 80 40% 2 17.02.2027 -
Dom Ballard Leyton Orient Actif 119 / 134 40% 1 17.02.2027 -
Facundo Jáuregui Huracán Actif 96 / 110 40% 1 16.02.2027 -
Ignacio Segovia Gimnasia La Plata Actif 78 / 86 40% 1 16.02.2027 -
Matías Cantero All Boys Actif 82 / 99 40% 1 13.02.2027 -
Tomás Chetelain Estudiantes Actif 91 / 96 40% 1 12.02.2027 -
Thiago Silvero Sevilla Actif 108 / 122 40% 2 09.02.2027 -
Dylan Almada Defensa y Justicia Actif 95 / 109 40% 1 09.02.2027 -
Alexis Duarte Lanús Actif 83 / 76 40% 1 09.02.2027 -
Emanuel Bonda Argentinos Juniors Actif 93 / 98 40% 1 08.02.2027 -
Enrique Maza Atlético Tucumán Actif 102 / 108 40% 1 08.02.2027 -
Álvaro Carrillo APOEL Actif 127 / 105 40% 1 05.02.2027 -
Alcides Benítez Belgrano Actif 113 / 107 40% 1 03.02.2027 -
Felipe Igón Racing Club Actif 81 / 105 40% 1 28.12.2026 -
Gianluca Pugliese Güemes Actif 109 / 112 40% 1 21.12.2026 -
Nicolás Cordero Aldosivi Actif 113 / 112 40% 1 16.12.2026 -
Derlis Aguilera Olimpia Actif 102 / 102 55% 1 07.12.2026 -
Yousef Salech Cardiff City Actif 133 / 127 40% 2 30.11.2026 -
Tommy Conway Middlesbrough Actif 131 / 111 40% 1 30.11.2026 -
Troy Parrott Betis Actif 131 / 155 40% 2 29.11.2026 -
Ammar Ramadan DAC Dunajska Streda Actif 123 / 142 40% 1 28.11.2026 -
Davis Keillor-Dunn Wrexham Actif 116 / 98 40% 1 28.11.2026 -
Leandro Suhr Piast Actif 126 / 109 40% 3 26.11.2026 -
Matías Contrera Northampton Town Actif 93 / 112 40% 1 26.11.2026 -
Jacob Greaves Ipswich Town Actif 131 / 125 40% 1 26.11.2026 -
Francisco Bareiro Vaduz Actif 112 / 82 40% 1 24.11.2026 -
Diego González Santos Laguna Actif 90 / 124 40% 1 23.11.2026 -
George Hirst Stoke City Actif 142 / 112 40% 1 23.11.2026 -
Mathias Kvistgaarden Norwich City Actif 123 / 113 40% 1 22.11.2026 -
Samuele Vignato HNK Rijeka Actif 126 / 115 40% 2 21.11.2026 -
Richard Koné Queens Park Rangers Actif 109 / 135 40% 1 21.11.2026 -
Pablo Siles Montevideo City Torque Actif 127 / 113 40% 1 21.11.2026 -
Ross McCrorie Bristol City Actif 117 / 121 40% 1 21.11.2026 -
Harry Clarke Preston Actif 130 / 132 40% 1 20.11.2026 -
Veljko Birmančević Ferencvaros Actif 127 / 120 40% 1 17.11.2026 -
Darío Cáceres Defensa y Justicia Actif 109 / 113 40% 3 15.11.2026 -
Simon Elisor Universitatea Craiova Actif 126 / 133 40% 1 15.11.2026 -
Ethan Galbraith Swansea City Actif 129 / 127 40% 1 15.11.2026 -
Elijah Adebayo Luton Town Actif 115 / 142 40% 1 12.11.2026 -
Mojmír Chytil Hajduk Split Actif 143 / 115 40% 2 11.11.2026 -
Alexei Dominguez Pachuca Actif 102 / 119 40% 1 10.11.2026 -
Antonio Galeano Remo Stars Actif 118 / 140 40% 1 09.11.2026 -
Marcelo Torres Gimnasia La Plata Actif 126 / 116 40% 4 08.11.2026 -
Guillem Molina Huesca Actif 96 / 116 40% 1 08.11.2026 -
Martín Ojeda Orlando City Actif 149 / 133 40% 6 06.11.2026 -
Claudy M'Buyi Rapid Wien Actif 108 / 126 40% 1 04.11.2026 -
Armstrong Oko-Flex Levski Actif 127 / 114 40% 1 04.11.2026 -
Manu Nieto Andorra Actif 132 / 135 40% 1 03.11.2026 Plus d'infos
Isaac Matondo Koper Actif 93 / 85 40% 1 03.11.2026 -
Dylan Gorosito Boca Juniors Actif 114 / 115 40% 1 02.11.2026 -
Luca Langoni New England Revolution Actif 144 / 111 40% 6 31.10.2026 -
Braian Ojeda Orlando City Actif 115 / 112 40% 3 31.10.2026 -
Max Fenger IFK Goteborg Actif 107 / 103 40% 1 31.10.2026 -
Matías Melluso Gimnasia La Plata Actif 124 / 113 40% 1 31.10.2026 -
Mateo Seoane Gimnasia La Plata Actif 125 / 125 40% 1 29.10.2026 -
Brayan Gil Baltika Actif 102 / 134 40% 3 27.10.2026 -
Fabricio Oviedo Rosario Central Actif 101 / 119 40% 2 27.10.2026 -
Fernando Román Defensa y Justicia Actif 100 / 120 40% 2 24.10.2026 -
Sergio Castillo Cortulua Actif 100 / 103 40% 1 24.10.2026 -
Bryan Ramírez FC Cincinnati Actif 123 / 130 40% 1 23.10.2026 -
Evander FC Cincinnati Actif 126 / 149 40% 1 20.10.2026 -
Nicolás Fernández Maipú Actif 118 / 113 40% 1 20.10.2026 -
Marin Benko Zadar Actif 125 / 138 40% 3 16.10.2026 -
Wessam Abou Ali Columbus Crew Actif 145 / 124 40% 3 14.10.2026 -
Jonatan Resquin Quilmes Actif 91 / 80 40% 1 13.10.2026 -
Maximiliano Duarte Independiente Actif 86 / 109 40% 1 13.10.2026 -
Marcos Camarda Santiago Wanderers Actif 98 / 115 40% 1 10.10.2026 -
Gastón Mansilla Maipú Actif 105 / 101 40% 1 10.10.2026 -
Allan Saint-Maximin Charlotte Football Club Actif 129 / 132 40% 1 10.10.2026 -
Brandon Vázquez Austin FC Actif 131 / 126 40% 1 06.10.2026 -
Iván Angulo Orlando City Actif 118 / 139 40% 1 06.10.2026 -
Gonzalo Lobos Lanús Actif 102 / 90 40% 1 06.10.2026 -
Tomás Chancalay Minnesota United FC Actif 137 / 134 40% 1 04.10.2026 -
Leonardo Campana New England Revolution Actif 143 / 137 40% 1 04.10.2026 -
Federico Girotti Alianza Lima Actif 117 / 128 40% 3 03.10.2026 -
Kévin Denkey FC Cincinnati Actif 145 / 111 40% 1 03.10.2026 -
Oscar Osorio Atletico Venezuela Actif 113 / 123 40% 2 01.10.2026 -
Mateusz Bogusz Houston Dynamo Actif 126 / 115 40% 1 30.09.2026 -
Prince Adu Kwabena Viktoria Plzen Actif 140 / 126 40% 1 29.09.2026 -
Ramiro Ruiz Rodríguez Atlético Tucumán Actif 129 / 110 40% 4 28.09.2026 -
Matías Gómez Valencia Actif 101 / 135 40% 1 28.09.2026 -
Genaro Rossi San Martín SJ Actif 99 / 111 40% 2 27.09.2026 -
Kelvin Yeboah Minnesota United FC Actif 137 / 125 40% 1 27.09.2026 -
José Rivera Universitario Actif 122 / 101 40% 3 25.09.2026 -
Jesus Ferreira Seattle Sounders Actif 120 / 137 40% 1 25.09.2026 -
Tadeo Allende Inter Miami CF Actif 128 / 118 40% 1 24.09.2026 -
Gabriel Otero Atletico Venezuela Actif 116 / 112 40% 1 24.09.2026 -
Patricio Pizarro Huracán Actif 105 / 107 40% 1 23.09.2026 -
Nicolás Baigorria San Telmo Actif 88 / 97 40% 1 20.09.2026 -
Santiago Uriza Vélez Actif 88 / 97 40% 1 18.09.2026 -
Job Ochieng Real Sociedad Actif 116 / 109 40% 1 17.09.2026 -
Enzo Larrosa Independiente Medellin Actif 105 / 104 40% 3 14.09.2026 -
Rafael Navarro St. Louis CITY SC Actif 129 / 136 40% 1 14.09.2026 -
Maurice Malone Minnesota United FC Actif 139 / 134 40% 1 11.09.2026 -
Dejan Joveljić Seattle Sounders Actif 114 / 138 40% 1 10.09.2026 -
Juan Cruz Zurbriggen San Telmo Actif 103 / 103 40% 1 08.09.2026 -
Adalberto Peñaranda Deportivo Tachira Actif 120 / 108 40% 1 03.09.2026 -
Bongokuhle Hlongwane Minnesota United FC Actif 119 / 126 40% 1 31.08.2026 -
Fabricio Rojas Gimnasia y Tiro Actif 109 / 109 40% 2 29.08.2026 -
Cheikh Sabaly Vancouver Whitecaps Actif 132 / 139 40% 1 27.08.2026 -
Matías Fuentes Boca Juniors Actif 74 / 106 40% 1 26.08.2026 -
César Magallan Estudiantes de Merida Actif 96 / 95 40% 1 23.08.2026 -
Sebastián Ferreira Olimpia Actif 115 / 111 40% 2 22.08.2026 -
Román Albornoz Temperley Actif 88 / 81 40% 1 18.08.2026 -
Enzo Reynoso Defensa y Justicia Actif 80 / 103 40% 1 17.08.2026 -
Kevin Cata Boca Juniors Actif 85 / 96 40% 1 15.08.2026 -
Jonatan Torres Cerro Porteno Actif 118 / 106 40% 2 12.08.2026 -
Álvaro Guevara Alianza Atletico Actif 77 / 102 40% 1 12.08.2026 -
Ignacio Sabatini Gimnasia y Esgrima Actif 95 / 98 40% 1 10.08.2026 -
Tomás Galván River Plate Actif 118 / 114 40% 1 09.08.2026 -
Darwin Casseres Atletico Venezuela Actif 118 / 116 40% 1 09.08.2026 -
Aliou Dieng Valencia Actif 108 / 104 40% 1 07.08.2026 -
César Inga Universitario Actif 122 / 129 40% 1 07.08.2026 -
Ariel Muñoz Alianza Atletico Actif 114 / 94 40% 1 06.08.2026 -
Thiago Perruisset Boca Juniors Actif 98 / 101 40% 1 06.08.2026 -
Gonzalo Córdoba Mitre Actif 93 / 93 40% 1 06.08.2026 -
Bryan Carvallo Cobresal Actif 106 / 107 40% 1 02.08.2026 -
Santiago Gutiérrez Alvarado Actif 114 / 108 40% 1 02.08.2026 -